Time;durP1;ratioP1;P1;durP2;ratioP2;P2;SDS_P1;SDS_P2;PMS_P1;PMS_P2;Temp;Humidity;BMP_temperature;BMP_pressure;BME280_temperature;BME280_humidity;BME280_pressure;Samples;Min_cycle;Max_cycle;Signal;HPM_P1;HPM_P2
2021/07/26 00:00:28;;;;;;;;;;;21.80;79.00;;;;;;5033521;28;1198;-67
2021/07/26 00:02:54;;;;;;;;;;;21.80;79.00;;;;;;5034064;28;1080;-66
2021/07/26 00:05:19;;;;;;;;;;;21.80;79.00;;;;;;5032313;28;1191;-67
2021/07/26 00:07:45;;;;;;;;;;;21.80;79.00;;;;;;5033502;28;1911;-67
2021/07/26 00:10:10;;;;;;;;;;;21.80;79.00;;;;;;5033967;28;1190;-66
2021/07/26 00:12:36;;;;;;;;;;;21.80;79.00;;;;;;5034387;28;1139;-66
2021/07/26 00:15:01;;;;;;;;;;;21.80;79.00;;;;;;5031673;28;1095;-67
2021/07/26 00:17:26;;;;;;;;;;;21.80;79.00;;;;;;5016498;28;1773;-66
2021/07/26 00:19:52;;;;;;;;;;;21.80;79.00;;;;;;5032508;28;1281;-66
2021/07/26 00:22:17;;;;;;;;;;;21.80;79.00;;;;;;5027125;28;1154;-67
2021/07/26 00:24:43;;;;;;;;;;;21.80;79.00;;;;;;5031696;28;1107;-66
2021/07/26 00:27:08;;;;;;;;;;;21.80;79.00;;;;;;5033568;28;1890;-66
2021/07/26 00:29:34;;;;;;;;;;;21.80;79.00;;;;;;5032056;28;1375;-67
2021/07/26 00:31:59;;;;;;;;;;;21.80;79.00;;;;;;5033407;28;1151;-67
2021/07/26 00:34:28;;;;;;;;;;;21.80;79.00;;;;;;5032952;28;1060;-66
2021/07/26 00:36:57;;;;;;;;;;;21.80;79.00;;;;;;5033015;28;1036;-66
2021/07/26 00:39:26;;;;;;;;;;;21.80;79.00;;;;;;5032306;28;1263;-66
2021/07/26 00:41:51;;;;;;;;;;;21.80;79.00;;;;;;5032392;28;1151;-66
2021/07/26 00:44:17;;;;;;;;;;;21.80;79.70;;;;;;5032174;28;1211;-66
2021/07/26 00:46:43;;;;;;;;;;;21.80;79.00;;;;;;5028836;28;1993;-68
2021/07/26 00:49:09;;;;;;;;;;;21.80;79.00;;;;;;5024057;28;1464;-66
2021/07/26 00:51:35;;;;;;;;;;;21.80;79.00;;;;;;5021251;28;1244;-67
2021/07/26 00:54:00;;;;;;;;;;;21.80;79.00;;;;;;5023279;28;1186;-66
2021/07/26 00:56:26;;;;;;;;;;;21.80;79.00;;;;;;5025172;28;973;-66
2021/07/26 00:58:51;;;;;;;;;;;21.80;79.00;;;;;;5033670;28;1064;-67
2021/07/26 01:01:17;;;;;;;;;;;21.80;79.00;;;;;;5032161;28;1380;-68
2021/07/26 01:03:43;;;;;;;;;;;21.80;79.00;;;;;;5032231;28;1084;-67
2021/07/26 01:06:09;;;;;;;;;;;21.80;79.00;;;;;;5033130;28;1958;-67
2021/07/26 01:08:35;;;;;;;;;;;21.80;79.00;;;;;;5032697;28;1072;-67
2021/07/26 01:11:00;;;;;;;;;;;21.80;79.00;;;;;;5033974;28;1313;-67
2021/07/26 01:13:28;;;;;;;;;;;21.80;79.00;;;;;;5033025;28;1079;-67
2021/07/26 01:15:53;;;;;;;;;;;21.80;79.00;;;;;;5032949;28;1060;-67
2021/07/26 01:18:22;;;;;;;;;;;21.80;79.00;;;;;;5033321;28;1104;-67
2021/07/26 01:20:48;;;;;;;;;;;21.80;79.00;;;;;;5027201;28;1366;-67
2021/07/26 01:23:14;;;;;;;;;;;21.80;79.00;;;;;;5031684;28;1096;-66
2021/07/26 01:25:39;;;;;;;;;;;21.80;79.00;;;;;;5033116;28;1064;-66
2021/07/26 01:28:05;;;;;;;;;;;21.80;79.00;;;;;;5032903;28;1906;-66
2021/07/26 01:30:31;;;;;;;;;;;21.80;79.00;;;;;;5032957;28;1292;-66
2021/07/26 01:32:57;;;;;;;;;;;21.80;79.00;;;;;;5032812;28;1175;-67
2021/07/26 01:35:22;;;;;;;;;;;21.80;79.00;;;;;;5032120;28;1097;-66
2021/07/26 01:37:48;;;;;;;;;;;21.80;79.00;;;;;;5032985;28;1187;-67
2021/07/26 01:40:13;;;;;;;;;;;21.80;79.00;;;;;;5032409;28;1268;-66
2021/07/26 01:42:42;;;;;;;;;;;21.80;79.00;;;;;;5032596;28;1080;-66
2021/07/26 01:45:08;;;;;;;;;;;21.80;79.00;;;;;;5031702;28;1166;-67
2021/07/26 01:47:34;;;;;;;;;;;21.80;79.00;;;;;;5031586;28;1967;-66
2021/07/26 01:50:06;;;;;;;;;;;21.80;79.00;;;;;;5031528;28;1214;-67
2021/07/26 01:52:32;;;;;;;;;;;21.80;79.00;;;;;;5031196;28;1174;-67
2021/07/26 01:54:57;;;;;;;;;;;21.80;79.00;;;;;;5031631;28;1088;-66
2021/07/26 01:57:23;;;;;;;;;;;21.80;79.00;;;;;;5030835;28;1143;-67
2021/07/26 01:59:48;;;;;;;;;;;21.80;79.00;;;;;;5031354;28;1369;-66
2021/07/26 02:02:14;;;;;;;;;;;21.80;79.00;;;;;;5032629;28;1072;-66
2021/07/26 02:04:39;;;;;;;;;;;21.80;79.00;;;;;;5031746;28;1052;-67
2021/07/26 02:07:07;;;;;;;;;;;21.80;79.00;;;;;;5032615;28;1902;-67
2021/07/26 02:09:33;;;;;;;;;;;21.80;79.00;;;;;;5032431;28;1281;-66
2021/07/26 02:11:59;;;;;;;;;;;21.80;79.10;;;;;;5032349;28;1154;-66
2021/07/26 02:14:25;;;;;;;;;;;21.80;79.00;;;;;;5031674;28;1084;-67
2021/07/26 02:16:51;;;;;;;;;;;21.80;79.00;;;;;;5031114;28;2142;-67
2021/07/26 02:19:16;;;;;;;;;;;21.80;79.00;;;;;;5031156;28;1076;-66
2021/07/26 02:21:41;;;;;;;;;;;21.80;79.00;;;;;;5025582;28;1220;-67
2021/07/26 02:24:07;;;;;;;;;;;21.80;79.00;;;;;;5031496;28;1080;-66
2021/07/26 02:26:33;;;;;;;;;;;21.80;79.00;;;;;;5019262;28;2022;-68
2021/07/26 02:28:58;;;;;;;;;;;21.80;79.00;;;;;;5032300;28;1084;-67
2021/07/26 02:31:24;;;;;;;;;;;21.80;79.00;;;;;;5032123;28;1182;-68
2021/07/26 02:33:49;;;;;;;;;;;21.80;79.00;;;;;;5032022;28;910;-68
2021/07/26 02:36:15;;;;;;;;;;;21.80;79.00;;;;;;5032032;28;1130;-67
2021/07/26 02:38:40;;;;;;;;;;;21.80;79.10;;;;;;5032514;28;1080;-67
2021/07/26 02:41:09;;;;;;;;;;;21.80;79.00;;;;;;5031613;28;1299;-67
2021/07/26 02:43:35;;;;;;;;;;;21.80;79.10;;;;;;5034264;28;1056;-67
2021/07/26 02:46:00;;;;;;;;;;;21.80;79.00;;;;;;5035497;28;1902;-67
2021/07/26 02:48:25;;;;;;;;;;;21.80;79.10;;;;;;5036190;28;1056;-67
2021/07/26 02:50:51;;;;;;;;;;;21.80;79.00;;;;;;5035876;28;1234;-67
2021/07/26 02:53:16;;;;;;;;;;;21.80;79.10;;;;;;5036342;28;1103;-67
2021/07/26 02:55:42;;;;;;;;;;;21.80;79.10;;;;;;5034799;28;945;-67
2021/07/26 02:58:07;;;;;;;;;;;21.80;79.10;;;;;;5036128;28;1056;-66
2021/07/26 03:00:32;;;;;;;;;;;21.80;79.10;;;;;;5035558;28;1211;-67
2021/07/26 03:02:58;;;;;;;;;;;21.80;79.10;;;;;;5035775;28;1076;-66
2021/07/26 03:05:23;;;;;;;;;;;21.80;79.10;;;;;;5035281;28;1151;-66
2021/07/26 03:07:49;;;;;;;;;;;21.80;79.10;;;;;;5035681;28;1902;-66
2021/07/26 03:10:14;;;;;;;;;;;21.80;79.10;;;;;;5035631;28;1352;-67
2021/07/26 03:12:40;;;;;;;;;;;21.80;79.10;;;;;;5035426;28;1123;-66
2021/07/26 03:15:07;;;;;;;;;;;21.80;79.10;;;;;;5034964;28;1174;-66
2021/07/26 03:17:33;;;;;;;;;;;21.80;79.80;;;;;;5035559;28;1064;-66
2021/07/26 03:19:58;;;;;;;;;;;21.80;79.10;;;;;;5035234;28;1294;-67
2021/07/26 03:22:43;;;;;;;;;;;21.80;79.10;;;;;;5028484;28;1210;-66
2021/07/26 03:25:08;;;;;;;;;;;21.80;79.10;;;;;;5034916;28;1059;-66
2021/07/26 03:27:34;;;;;;;;;;;21.80;79.10;;;;;;5035377;28;1960;-67
2021/07/26 03:29:59;;;;;;;;;;;21.80;79.10;;;;;;5035364;28;1932;-66
2021/07/26 03:32:24;;;;;;;;;;;21.80;79.10;;;;;;5035334;28;1056;-66
2021/07/26 03:34:50;;;;;;;;;;;21.80;79.10;;;;;;5033392;28;1063;-67
2021/07/26 03:37:15;;;;;;;;;;;21.80;79.10;;;;;;5034735;28;1147;-66
2021/07/26 03:39:41;;;;;;;;;;;21.80;79.10;;;;;;5035440;28;1283;-66
2021/07/26 03:42:06;;;;;;;;;;;21.80;79.10;;;;;;5034331;28;1116;-67
2021/07/26 03:44:31;;;;;;;;;;;21.80;79.10;;;;;;5034730;28;1317;-66
2021/07/26 03:47:00;;;;;;;;;;;21.80;79.10;;;;;;5035154;28;1962;-66
2021/07/26 03:49:25;;;;;;;;;;;21.80;79.10;;;;;;5033617;28;1251;-66
2021/07/26 03:51:50;;;;;;;;;;;21.80;79.10;;;;;;5033084;28;1056;-67
2021/07/26 03:54:16;;;;;;;;;;;21.80;79.10;;;;;;5032346;28;1154;-65
2021/07/26 03:56:41;;;;;;;;;;;21.80;79.10;;;;;;5034708;28;1123;-66
2021/07/26 03:59:07;;;;;;;;;;;21.80;79.10;;;;;;5033699;28;1119;-66
2021/07/26 04:01:32;;;;;;;;;;;21.80;79.10;;;;;;5034168;28;1287;-65
2021/07/26 04:03:58;;;;;;;;;;;21.80;79.10;;;;;;5034012;28;1067;-66
2021/07/26 04:06:23;;;;;;;;;;;21.80;79.10;;;;;;5033942;28;1909;-67
2021/07/26 04:08:50;;;;;;;;;;;21.80;79.10;;;;;;5034360;28;1115;-66
2021/07/26 04:13:53;;;;;;;;;;;21.80;79.10;;;;;;5034535;28;1142;-67
2021/07/26 04:16:18;;;;;;;;;;;21.80;79.10;;;;;;5032491;28;1146;-66
2021/07/26 04:18:46;;;;;;;;;;;21.80;79.10;;;;;;5034048;28;1147;-66
2021/07/26 04:21:11;;;;;;;;;;;21.80;79.10;;;;;;5026664;28;1357;-66
2021/07/26 04:23:37;;;;;;;;;;;21.80;79.10;;;;;;5034265;28;1072;-66
2021/07/26 04:26:02;;;;;;;;;;;21.80;79.10;;;;;;5033623;28;1903;-66
2021/07/26 04:28:28;;;;;;;;;;;21.80;79.10;;;;;;5033904;28;1056;-66
2021/07/26 04:30:53;;;;;;;;;;;21.80;79.00;;;;;;5034029;28;1366;-66
2021/07/26 04:33:19;;;;;;;;;;;21.80;79.10;;;;;;5034002;28;1111;-66
2021/07/26 04:35:44;;;;;;;;;;;21.80;79.10;;;;;;5033476;28;1130;-66
2021/07/26 04:38:10;;;;;;;;;;;21.80;79.10;;;;;;5034085;28;1104;-67
2021/07/26 04:40:35;;;;;;;;;;;21.80;79.10;;;;;;5033648;28;1292;-66
2021/07/26 04:43:00;;;;;;;;;;;21.80;79.10;;;;;;5033272;28;981;-66
2021/07/26 04:45:26;;;;;;;;;;;21.80;79.10;;;;;;5033417;28;1202;-66
2021/07/26 04:47:51;;;;;;;;;;;21.80;79.10;;;;;;5034155;28;1898;-66
2021/07/26 04:50:17;;;;;;;;;;;21.80;79.10;;;;;;5033744;28;1260;-67
2021/07/26 04:52:43;;;;;;;;;;;21.80;79.10;;;;;;5033171;28;1036;-67
2021/07/26 04:55:08;;;;;;;;;;;21.80;79.10;;;;;;5032717;28;1170;-66
2021/07/26 04:57:34;;;;;;;;;;;21.80;79.10;;;;;;5033962;28;1067;-68
2021/07/26 05:00:00;;;;;;;;;;;21.80;79.10;;;;;;5043395;22;1657;-83
2021/07/26 05:02:25;;;;;;;;;;;21.80;79.10;;;;;;5083345;22;3574;-69
2021/07/26 05:04:50;;;;;;;;;;;21.80;79.10;;;;;;5070648;28;1151;-69
2021/07/26 05:07:16;;;;;;;;;;;21.80;79.20;;;;;;5073656;28;1922;-69
2021/07/26 05:09:41;;;;;;;;;;;21.80;79.10;;;;;;5073399;28;1371;-69
2021/07/26 05:12:12;;;;;;;;;;;21.80;79.10;;;;;;5072977;28;1217;-70
2021/07/26 05:14:39;;;;;;;;;;;21.80;79.10;;;;;;5071915;28;1627;-70
2021/07/26 05:17:04;;;;;;;;;;;21.80;79.10;;;;;;5073351;28;1783;-70
2021/07/26 05:19:30;;;;;;;;;;;21.80;79.10;;;;;;5072207;28;1576;-70
2021/07/26 05:21:55;;;;;;;;;;;21.80;79.10;;;;;;5065752;28;1443;-70
2021/07/26 05:24:20;;;;;;;;;;;21.80;79.10;;;;;;5072379;28;1086;-71
2021/07/26 05:26:46;;;;;;;;;;;21.80;79.10;;;;;;5073265;28;1922;-71
2021/07/26 05:29:11;;;;;;;;;;;21.80;79.10;;;;;;5071996;28;1668;-71
2021/07/26 05:31:37;;;;;;;;;;;21.80;79.10;;;;;;5073027;28;1407;-72
2021/07/26 05:34:02;;;;;;;;;;;21.80;79.10;;;;;;5072195;28;1433;-71
2021/07/26 05:36:28;;;;;;;;;;;21.80;79.00;;;;;;5073250;28;1396;-71
2021/07/26 05:38:53;;;;;;;;;;;21.80;79.00;;;;;;5073022;28;1631;-71
2021/07/26 05:41:18;;;;;;;;;;;21.80;79.00;;;;;;5072089;28;1462;-71
2021/07/26 05:43:44;;;;;;;;;;;21.80;79.00;;;;;;5071386;28;1632;-71
2021/07/26 05:46:10;;;;;;;;;;;21.80;78.90;;;;;;5060518;28;1955;-71
2021/07/26 05:48:35;;;;;;;;;;;21.80;78.90;;;;;;5070226;28;1242;-71
2021/07/26 05:51:00;;;;;;;;;;;21.80;78.90;;;;;;5060704;28;1229;-71
2021/07/26 05:53:26;;;;;;;;;;;21.80;78.90;;;;;;5072559;28;1334;-71
2021/07/26 05:55:51;;;;;;;;;;;21.80;78.80;;;;;;5071957;28;1681;-72
2021/07/26 05:58:17;;;;;;;;;;;21.80;78.80;;;;;;5072852;28;1380;-69
2021/07/26 06:00:46;;;;;;;;;;;21.80;78.80;;;;;;5067798;28;1276;-70
2021/07/26 06:03:11;;;;;;;;;;;21.80;78.80;;;;;;5067744;28;1649;-70
2021/07/26 06:05:37;;;;;;;;;;;21.80;78.80;;;;;;5072736;28;1384;-70
2021/07/26 06:08:02;;;;;;;;;;;21.80;78.90;;;;;;5058293;28;1906;-70
2021/07/26 06:10:28;;;;;;;;;;;21.80;78.90;;;;;;5072734;28;1702;-70
2021/07/26 06:12:53;;;;;;;;;;;21.80;78.80;;;;;;5071207;28;1672;-70
2021/07/26 06:15:19;;;;;;;;;;;21.80;78.80;;;;;;5072539;28;1398;-70
2021/07/26 06:17:44;;;;;;;;;;;21.80;78.90;;;;;;5071773;28;1437;-70
2021/07/26 06:20:11;;;;;;;;;;;21.80;78.80;;;;;;5071134;28;1385;-70
2021/07/26 06:22:37;;;;;;;;;;;21.80;78.90;;;;;;5066064;28;1648;-70
2021/07/26 06:25:04;;;;;;;;;;;21.80;78.80;;;;;;5071740;28;1441;-70
2021/07/26 06:27:29;;;;;;;;;;;21.80;78.80;;;;;;5071389;28;1906;-70
2021/07/26 06:29:55;;;;;;;;;;;21.80;78.80;;;;;;5070876;28;1409;-70
2021/07/26 06:32:20;;;;;;;;;;;21.80;78.80;;;;;;5072083;28;1697;-69
2021/07/26 06:34:46;;;;;;;;;;;21.80;78.90;;;;;;5072461;28;1356;-69
2021/07/26 06:37:11;;;;;;;;;;;21.80;78.90;;;;;;5072256;28;1376;-69
2021/07/26 06:39:37;;;;;;;;;;;21.80;78.90;;;;;;5072359;28;1509;-69
2021/07/26 06:42:02;;;;;;;;;;;21.80;78.90;;;;;;5071143;28;1422;-69
2021/07/26 06:44:28;;;;;;;;;;;21.80;78.90;;;;;;5062805;28;1440;-69
2021/07/26 06:46:53;;;;;;;;;;;21.80;79.00;;;;;;5065764;28;1957;-69
2021/07/26 06:49:18;;;;;;;;;;;21.80;78.90;;;;;;5072209;28;1345;-70
2021/07/26 06:51:44;;;;;;;;;;;21.80;79.00;;;;;;5071637;28;1659;-69
2021/07/26 06:54:09;;;;;;;;;;;21.80;79.00;;;;;;5071482;28;1366;-69
2021/07/26 06:56:35;;;;;;;;;;;21.80;78.90;;;;;;5071481;28;1173;-69
2021/07/26 06:59:00;;;;;;;;;;;21.80;78.90;;;;;;5070671;28;1712;-70
2021/07/26 07:01:27;;;;;;;;;;;21.80;79.00;;;;;;5071485;28;1376;-69
2021/07/26 07:03:55;;;;;;;;;;;21.80;79.00;;;;;;5071126;28;1337;-69
2021/07/26 07:06:23;;;;;;;;;;;21.80;79.00;;;;;;5071145;28;1906;-69
2021/07/26 07:08:48;;;;;;;;;;;21.80;79.00;;;;;;5072251;28;1398;-68
2021/07/26 07:11:14;;;;;;;;;;;21.80;79.00;;;;;;5071921;28;1644;-69
2021/07/26 07:13:40;;;;;;;;;;;21.80;79.00;;;;;;5072070;28;1197;-71
2021/07/26 07:16:09;;;;;;;;;;;21.80;79.00;;;;;;5069750;28;1544;-71
2021/07/26 07:18:35;;;;;;;;;;;21.80;79.00;;;;;;5071587;28;1161;-71
2021/07/26 07:21:00;;;;;;;;;;;21.80;79.00;;;;;;5063661;28;1770;-71
2021/07/26 07:23:25;;;;;;;;;;;21.80;79.00;;;;;;5072207;28;1658;-71
2021/07/26 07:25:51;;;;;;;;;;;21.80;79.00;;;;;;5071742;28;1635;-68
2021/07/26 07:28:17;;;;;;;;;;;21.80;79.00;;;;;;5071654;28;1957;-71
2021/07/26 07:30:43;;;;;;;;;;;21.80;79.00;;;;;;5075163;28;1369;-69
2021/07/26 07:33:08;;;;;;;;;;;21.80;79.00;;;;;;5073809;28;1432;-68
2021/07/26 07:35:34;;;;;;;;;;;21.80;79.00;;;;;;5073506;28;1220;-68
2021/07/26 07:37:59;;;;;;;;;;;21.80;79.10;;;;;;5074172;28;1717;-68
2021/07/26 07:40:25;;;;;;;;;;;21.80;79.10;;;;;;5075368;28;1546;-69
2021/07/26 07:42:50;;;;;;;;;;;21.80;79.00;;;;;;5074816;28;1680;-69
2021/07/26 07:45:15;;;;;;;;;;;21.80;79.00;;;;;;5061420;28;1611;-69
2021/07/26 07:47:41;;;;;;;;;;;21.80;79.10;;;;;;5074868;28;1965;-68
2021/07/26 07:50:07;;;;;;;;;;;21.80;79.10;;;;;;5073853;28;1390;-69
2021/07/26 07:52:34;;;;;;;;;;;21.80;79.10;;;;;;5073513;28;1440;-68
2021/07/26 07:54:59;;;;;;;;;;;21.80;79.10;;;;;;5072934;28;1385;-69
2021/07/26 07:57:25;;;;;;;;;;;21.80;79.10;;;;;;5075131;28;1656;-69
2021/07/26 07:59:50;;;;;;;;;;;21.80;79.10;;;;;;5073365;28;1596;-70
2021/07/26 08:02:17;;;;;;;;;;;21.80;79.10;;;;;;5074381;28;1640;-70
2021/07/26 08:04:43;;;;;;;;;;;21.80;79.10;;;;;;5073101;28;1648;-70
2021/07/26 08:07:08;;;;;;;;;;;21.80;79.10;;;;;;5073663;28;1910;-70
2021/07/26 08:09:33;;;;;;;;;;;21.80;79.10;;;;;;5075022;28;1393;-70
2021/07/26 08:11:59;;;;;;;;;;;21.80;79.10;;;;;;5073221;28;1321;-70
2021/07/26 08:14:24;;;;;;;;;;;21.80;79.10;;;;;;5072654;28;1682;-70
2021/07/26 08:16:50;;;;;;;;;;;21.80;79.10;;;;;;5074731;28;2236;-71
2021/07/26 08:19:15;;;;;;;;;;;21.80;79.10;;;;;;5074591;28;1435;-70
2021/07/26 08:21:41;;;;;;;;;;;21.80;79.10;;;;;;5066443;28;1386;-70
2021/07/26 08:24:06;;;;;;;;;;;21.80;79.10;;;;;;5073555;28;1253;-69
2021/07/26 08:26:31;;;;;;;;;;;21.80;79.10;;;;;;5073094;28;1898;-69
2021/07/26 08:28:57;;;;;;;;;;;21.80;79.10;;;;;;5074299;28;1747;-70
2021/07/26 08:31:22;;;;;;;;;;;21.80;79.10;;;;;;5074309;28;1744;-70
2021/07/26 08:33:48;;;;;;;;;;;21.80;79.10;;;;;;5074032;28;1465;-69
2021/07/26 08:36:13;;;;;;;;;;;21.80;79.10;;;;;;5073127;28;1644;-70
2021/07/26 08:38:39;;;;;;;;;;;21.80;79.10;;;;;;5074340;28;1190;-68
2021/07/26 08:41:04;;;;;;;;;;;21.80;79.10;;;;;;5073051;28;1457;-70
2021/07/26 08:43:29;;;;;;;;;;;21.80;79.10;;;;;;5073915;28;1708;-70
2021/07/26 08:45:55;;;;;;;;;;;21.80;79.10;;;;;;5058921;28;1803;-70
2021/07/26 08:48:20;;;;;;;;;;;21.80;79.10;;;;;;5072549;28;1883;-69
2021/07/26 08:50:46;;;;;;;;;;;21.80;79.10;;;;;;5072698;28;1278;-68
2021/07/26 08:53:11;;;;;;;;;;;21.80;79.10;;;;;;5072780;28;1407;-69
2021/07/26 08:55:37;;;;;;;;;;;21.80;79.10;;;;;;5071513;28;1351;-70
2021/07/26 08:58:02;;;;;;;;;;;21.80;79.10;;;;;;5073761;28;1404;-71
2021/07/26 09:00:28;;;;;;;;;;;21.80;79.10;;;;;;5070924;28;1381;-72
2021/07/26 09:02:53;;;;;;;;;;;21.80;79.10;;;;;;5065652;28;1664;-71
2021/07/26 09:05:19;;;;;;;;;;;21.80;79.10;;;;;;5071188;28;1446;-70
2021/07/26 09:07:45;;;;;;;;;;;21.80;79.10;;;;;;5073822;28;1910;-70
2021/07/26 09:10:14;;;;;;;;;;;21.80;79.10;;;;;;5073534;28;1306;-70
2021/07/26 09:12:40;;;;;;;;;;;21.80;79.10;;;;;;5072956;28;1635;-70
2021/07/26 09:15:06;;;;;;;;;;;21.80;79.10;;;;;;5071672;28;1204;-70
2021/07/26 09:17:35;;;;;;;;;;;21.80;79.10;;;;;;5072151;28;1222;-70
2021/07/26 09:20:01;;;;;;;;;;;21.80;79.10;;;;;;5072148;28;1408;-70
2021/07/26 09:22:36;;;;;;;;;;;21.80;79.20;;;;;;5066177;28;1668;-70
2021/07/26 09:25:20;;;;;;;;;;;21.80;79.10;;;;;;5072441;28;1368;-70
2021/07/26 09:27:54;;;;;;;;;;;21.80;79.10;;;;;;5072931;28;1882;-70
2021/07/26 09:30:20;;;;;;;;;;;21.80;79.10;;;;;;5052266;28;1277;-69
2021/07/26 09:32:45;;;;;;;;;;;21.80;79.10;;;;;;5054350;28;1215;-72
2021/07/26 09:35:11;;;;;;;;;;;21.80;79.10;;;;;;5068409;28;1457;-71
2021/07/26 09:37:37;;;;;;;;;;;21.80;79.10;;;;;;5061728;28;1386;-71
2021/07/26 09:40:21;;;;;;;;;;;21.80;79.10;;;;;;5051680;28;1401;-70
2021/07/26 09:42:47;;;;;;;;;;;21.80;79.10;;;;;;5051622;28;1220;-71
2021/07/26 09:45:22;;;;;;;;;;;21.80;79.10;;;;;;5067256;28;1272;-71
2021/07/26 09:48:03;;;;;;;;;;;21.80;79.10;;;;;;5071769;28;1906;-71
2021/07/26 09:50:42;;;;;;;;;;;21.80;79.10;;;;;;5070951;28;1400;-69
2021/07/26 09:53:08;;;;;;;;;;;21.80;79.10;;;;;;5060765;28;1443;-70
2021/07/26 09:55:34;;;;;;;;;;;21.80;79.10;;;;;;5086263;28;1389;-69
2021/07/26 09:58:02;;;;;;;;;;;21.80;79.10;;;;;;5072783;28;1114;-69
2021/07/26 10:00:28;;;;;;;;;;;21.80;79.10;;;;;;5061753;28;1435;-71
2021/07/26 10:02:54;;;;;;;;;;;21.80;79.20;;;;;;5062082;28;1211;-69
2021/07/26 10:05:19;;;;;;;;;;;21.80;79.10;;;;;;5070569;28;1496;-70
2021/07/26 10:07:45;;;;;;;;;;;21.80;79.10;;;;;;5071260;28;1898;-70
2021/07/26 10:10:11;;;;;;;;;;;21.80;79.10;;;;;;5072342;28;1481;-70
2021/07/26 10:12:37;;;;;;;;;;;21.80;79.10;;;;;;5072157;28;1679;-70
2021/07/26 10:15:02;;;;;;;;;;;21.80;79.10;;;;;;5070559;28;1246;-70
2021/07/26 10:17:28;;;;;;;;;;;21.80;79.10;;;;;;5072147;28;1434;-70
2021/07/26 10:19:53;;;;;;;;;;;21.80;79.10;;;;;;5071213;28;1734;-70
2021/07/26 10:22:23;;;;;;;;;;;21.80;79.10;;;;;;5064217;28;1522;-70
2021/07/26 10:24:50;;;;;;;;;;;21.80;79.10;;;;;;5070536;28;1701;-69
2021/07/26 10:27:36;;;;;;;;;;;21.80;79.10;;;;;;5054664;28;1952;-71
2021/07/26 10:30:01;;;;;;;;;;;21.80;79.10;;;;;;5071807;28;1438;-71
2021/07/26 10:32:30;;;;;;;;;;;21.80;79.10;;;;;;5070740;28;1125;-70
2021/07/26 10:35:18;;;;;;;;;;;21.80;79.10;;;;;;5070505;28;1659;-69
2021/07/26 10:37:49;;;;;;;;;;;21.80;79.10;;;;;;5068607;28;1513;-70
2021/07/26 10:40:24;;;;;;;;;;;21.80;79.10;;;;;;5071496;28;1370;-70
2021/07/26 10:42:50;;;;;;;;;;;21.80;79.10;;;;;;5053921;28;1475;-68
2021/07/26 10:45:31;;;;;;;;;;;21.80;79.10;;;;;;5057646;28;1596;-69
2021/07/26 10:48:14;;;;;;;;;;;21.80;79.10;;;;;;5064103;28;1965;-69
2021/07/26 10:50:40;;;;;;;;;;;21.80;79.10;;;;;;5063021;28;1248;-69
2021/07/26 10:53:05;;;;;;;;;;;21.80;79.20;;;;;;5062509;28;1530;-68
2021/07/26 10:55:49;;;;;;;;;;;21.80;79.20;;;;;;5071361;28;1372;-69
2021/07/26 10:58:33;;;;;;;;;;;21.80;79.10;;;;;;5072223;28;1433;-69
2021/07/26 11:01:17;;;;;;;;;;;21.80;79.10;;;;;;5085327;22;2666;-67
2021/07/26 11:03:43;;;;;;;;;;;21.80;79.20;;;;;;5073648;28;1267;-68
2021/07/26 11:06:08;;;;;;;;;;;21.80;79.10;;;;;;5076399;28;1359;-67
2021/07/26 11:08:34;;;;;;;;;;;21.80;79.60;;;;;;5076133;28;1187;-68
2021/07/26 11:10:59;;;;;;;;;;;21.80;79.20;;;;;;5074749;28;1384;-68
2021/07/26 11:13:46;;;;;;;;;;;21.80;79.20;;;;;;5075767;28;1666;-68
2021/07/26 11:16:11;;;;;;;;;;;21.80;79.10;;;;;;5075316;28;1664;-68
2021/07/26 11:18:40;;;;;;;;;;;21.80;79.10;;;;;;5075881;28;1406;-68
2021/07/26 11:21:05;;;;;;;;;;;21.80;79.10;;;;;;5068994;28;1295;-68
2021/07/26 11:23:41;;;;;;;;;;;21.80;79.10;;;;;;5075712;28;1646;-68
2021/07/26 11:26:13;;;;;;;;;;;21.90;79.20;;;;;;5075305;28;1614;-68
2021/07/26 11:28:39;;;;;;;;;;;21.80;79.10;;;;;;5074448;28;1426;-68
2021/07/26 11:31:04;;;;;;;;;;;21.80;79.10;;;;;;5074275;28;1430;-68
2021/07/26 11:33:31;;;;;;;;;;;21.90;79.20;;;;;;5075378;28;1083;-68
2021/07/26 11:35:58;;;;;;;;;;;21.80;79.10;;;;;;5075301;28;1391;-68
2021/07/26 11:38:24;;;;;;;;;;;21.90;79.20;;;;;;5075343;28;1659;-68
2021/07/26 11:40:49;;;;;;;;;;;21.80;79.10;;;;;;5075410;28;1388;-68
2021/07/26 11:43:15;;;;;;;;;;;21.90;79.20;;;;;;5074152;28;1391;-68
2021/07/26 11:45:40;;;;;;;;;;;21.80;79.10;;;;;;5060110;28;1602;-68
2021/07/26 11:48:07;;;;;;;;;;;21.90;79.20;;;;;;5074130;28;1981;-68
2021/07/26 11:50:39;;;;;;;;;;;21.80;79.10;;;;;;5074450;28;1383;-68
2021/07/26 11:53:04;;;;;;;;;;;21.80;79.10;;;;;;5074027;28;1431;-68
2021/07/26 11:55:37;;;;;;;;;;;21.90;79.20;;;;;;5075134;28;1701;-68
2021/07/26 11:58:06;;;;;;;;;;;21.90;79.20;;;;;;5074553;28;1360;-69
2021/07/26 12:00:44;;;;;;;;;;;21.90;79.20;;;;;;5075498;28;1725;-68
2021/07/26 12:03:10;;;;;;;;;;;21.90;79.40;;;;;;5073662;28;1864;-68
2021/07/26 12:05:35;;;;;;;;;;;21.80;79.30;;;;;;5071986;28;1693;-67
2021/07/26 12:08:01;;;;;;;;;;;21.80;79.30;;;;;;5058492;28;1906;-68
2021/07/26 12:10:36;;;;;;;;;;;21.90;79.30;;;;;;5056846;28;1266;-68
2021/07/26 12:13:12;;;;;;;;;;;21.90;79.20;;;;;;5050924;28;1240;-68
2021/07/26 12:15:40;;;;;;;;;;;21.90;79.20;;;;;;5052609;28;1219;-68
2021/07/26 12:18:09;;;;;;;;;;;21.90;79.20;;;;;;5056008;28;1516;-68
2021/07/26 12:20:36;;;;;;;;;;;21.90;79.20;;;;;;5055143;28;1211;-68
2021/07/26 12:23:13;;;;;;;;;;;21.90;79.30;;;;;;5052442;28;1210;-68
2021/07/26 12:25:45;;;;;;;;;;;21.90;79.30;;;;;;5053880;28;1212;-69
2021/07/26 12:28:11;;;;;;;;;;;21.90;79.30;;;;;;5059669;28;1898;-69
2021/07/26 12:30:40;;;;;;;;;;;21.90;79.30;;;;;;5073629;28;1673;-68
2021/07/26 12:33:05;;;;;;;;;;;21.90;79.40;;;;;;5074668;28;1267;-68
2021/07/26 12:35:32;;;;;;;;;;;21.90;79.50;;;;;;5072980;28;1469;-68
2021/07/26 12:38:00;;;;;;;;;;;21.90;79.50;;;;;;5073044;28;1294;-69
2021/07/26 12:40:26;;;;;;;;;;;21.90;79.50;;;;;;5074484;28;1559;-68
2021/07/26 12:43:06;;;;;;;;;;;21.90;79.50;;;;;;5073030;28;1583;-68
2021/07/26 12:45:32;;;;;;;;;;;21.90;79.60;;;;;;5060319;28;1236;-68
2021/07/26 12:47:58;;;;;;;;;;;21.90;79.60;;;;;;5073009;28;1965;-68
2021/07/26 12:50:24;;;;;;;;;;;21.90;79.60;;;;;;5074143;28;1363;-68
2021/07/26 12:52:50;;;;;;;;;;;21.90;79.60;;;;;;5072123;28;1401;-68
2021/07/26 12:55:18;;;;;;;;;;;21.90;79.60;;;;;;5073783;28;1305;-68
2021/07/26 12:57:43;;;;;;;;;;;21.90;79.60;;;;;;5073744;28;1612;-68
2021/07/26 13:00:09;;;;;;;;;;;21.90;79.60;;;;;;5073884;28;1610;-68
2021/07/26 13:02:35;;;;;;;;;;;21.90;79.60;;;;;;5073582;28;1639;-68
2021/07/26 13:05:07;;;;;;;;;;;21.90;79.60;;;;;;5072432;28;1636;-68
2021/07/26 13:07:33;;;;;;;;;;;21.90;79.70;;;;;;5072528;28;1957;-68
2021/07/26 13:09:58;;;;;;;;;;;21.90;79.60;;;;;;5073687;28;1178;-67
2021/07/26 13:12:24;;;;;;;;;;;21.90;79.60;;;;;;5073559;28;1426;-68
2021/07/26 13:14:49;;;;;;;;;;;21.90;79.60;;;;;;5073029;28;1355;-67
2021/07/26 13:17:14;;;;;;;;;;;21.90;79.60;;;;;;5073795;28;1355;-68
2021/07/26 13:19:40;;;;;;;;;;;21.90;79.50;;;;;;5072231;28;1376;-68
2021/07/26 13:22:05;;;;;;;;;;;21.90;79.50;;;;;;5065965;28;1468;-68
2021/07/26 13:24:31;;;;;;;;;;;21.90;79.50;;;;;;5073064;28;1693;-68
2021/07/26 13:26:56;;;;;;;;;;;21.90;79.50;;;;;;5071551;28;1902;-68
2021/07/26 13:29:22;;;;;;;;;;;21.90;79.50;;;;;;5073254;28;1447;-68
2021/07/26 13:31:47;;;;;;;;;;;21.90;79.40;;;;;;5073267;28;1412;-68
2021/07/26 13:34:16;;;;;;;;;;;21.90;79.40;;;;;;5071750;28;1380;-68
2021/07/26 13:36:41;;;;;;;;;;;21.90;79.40;;;;;;5073297;28;1345;-67
2021/07/26 13:39:07;;;;;;;;;;;21.90;79.40;;;;;;5059610;28;1135;-68
2021/07/26 13:41:32;;;;;;;;;;;21.90;79.40;;;;;;5072219;28;1595;-68
2021/07/26 13:43:57;;;;;;;;;;;21.90;79.50;;;;;;5068622;28;1327;-68
2021/07/26 13:46:23;;;;;;;;;;;21.90;79.50;;;;;;5061751;28;1901;-68
2021/07/26 13:48:48;;;;;;;;;;;21.90;79.60;;;;;;5073439;28;1322;-67
2021/07/26 13:51:14;;;;;;;;;;;21.90;79.60;;;;;;5063651;28;1224;-68
2021/07/26 13:53:39;;;;;;;;;;;21.90;79.60;;;;;;5069338;28;1427;-68
2021/07/26 13:56:05;;;;;;;;;;;21.90;79.50;;;;;;5073019;28;1643;-68
2021/07/26 13:58:30;;;;;;;;;;;21.90;79.50;;;;;;5073130;28;1477;-67
2021/07/26 14:00:55;;;;;;;;;;;21.90;79.50;;;;;;5073015;28;1679;-67
2021/07/26 14:03:21;;;;;;;;;;;21.90;79.50;;;;;;5072992;28;1236;-67
2021/07/26 14:05:46;;;;;;;;;;;21.90;79.50;;;;;;5071758;28;1462;-68
2021/07/26 14:08:13;;;;;;;;;;;21.90;79.50;;;;;;5062738;28;2006;-68
2021/07/26 14:10:39;;;;;;;;;;;21.90;79.50;;;;;;5036240;28;1358;-68
2021/07/26 14:13:04;;;;;;;;;;;21.90;79.50;;;;;;5053064;28;1212;-67
2021/07/26 14:15:30;;;;;;;;;;;21.90;79.50;;;;;;5049889;28;1165;-67
2021/07/26 14:17:55;;;;;;;;;;;21.90;79.60;;;;;;5050254;28;1342;-67
2021/07/26 14:20:21;;;;;;;;;;;21.90;79.70;;;;;;5050384;28;1212;-68
2021/07/26 14:22:46;;;;;;;;;;;21.90;79.80;;;;;;5050332;28;1292;-68
2021/07/26 14:25:12;;;;;;;;;;;21.90;80.00;;;;;;5049342;28;1274;-67
2021/07/26 14:27:37;;;;;;;;;;;21.90;80.10;;;;;;5050412;28;1938;-67
2021/07/26 14:30:04;;;;;;;;;;;21.90;80.00;;;;;;5050931;28;1184;-67